Αρχική σελίδα
METAR-TAF:

METAR-TAF

Αεροδρόμια :

Yurimaguas, Περού

γεωγραφικό πλάτος: 05-54S, γεωγραφικό μήκος: 076-05W, υψόμετρο: 179 μ

Παρών καιρός

Η αναφορά έγινε 54 λεπτά πριν, στις 20:00 UTC
Άνεμος 4 kt από Α/NA
Θερμοκρασία 32°C
Υγρασία 63%
Πίεση 1013 hPa
Ορατότητα 10 χλμ και άνω
Λίγα νέφη σε ύψος 1500 πόδια

METAR: SPMS 192000Z 12004KT 9999 FEW015 32/24 Q1013 RMK BIRD HAZARD RWY 09/27 PP000

Χρόνος: 15:54 (20:54 UTC)

Πρόγνωση Καιρού

Η αναφορά έγινε 3 ώρες και 54 λεπτά πριν, στις 17:00 UTC
Η πρόγνωση ισχύει από τις 19 στις 18 UTC έως τις 20 στις 18 UTC
Άνεμος 4 kt από μεταβλητές κατευθύνσεις
Ορατότητα 10 χλμ και άνω
Λίγα νέφη σε ύψος 1500 πόδια

TAF: SPMS 191700Z 1918/2018 VRB04KT 9999 FEW015 TX33/1920Z TN23/2011Z

Μετεωρολογικές αναφορές και προγνώσεις για περισσότερα από 4000 αεροδρόμια (δελτία METAR και TAF).

Οι διαθέσιμοι σταθμοί απεικονίζονται στο χάρτη με κίτρινες και κόκκινες κουκκίδες.

Μετακινήστε το ποντίκι πάνω από τις κουκκίδες για να δείτε το όνομα του σταθμού.

Στη συνέχεια, κάντε κλικ για να δείτε τις μετεωρολογικές αναφορές και τις προγνώσεις καιρού.

Για να αλλάξετε το χάρτη: κάντε κλικ στα πράσινα κουμπιά με τον μαύρο σταυρό για να ζουμάρετε, στο πράσινο κουμπί με την παύλα για να αφαιρέσετε το ζουμ ή στα πράσινα βέλη για να αντιπαραβάλλετε χάρτες.


METAR-TAF: